Time;durP1;ratioP1;P1;durP2;ratioP2;P2;SDS_P1;SDS_P2;PMS_P1;PMS_P2;Temp;Humidity;BMP_temperature;BMP_pressure;BME280_temperature;BME280_humidity;BME280_pressure;Samples;Min_cycle;Max_cycle;Signal;HPM_P1;HPM_P2
2022/01/22 00:02:08;;;;;;;;;25.75;25.25;;;;;;;;5050906;28;47276;-74
2022/01/22 00:04:33;;;;;;;;;34.75;28.75;;;;;;;;5046236;28;45437;-72
2022/01/22 00:07:02;;;;;;;;;25.50;23.00;;;;;;;;5059466;28;45217;-73
2022/01/22 00:09:28;;;;;;;;;28.75;28.00;;;;;;;;5036053;28;47127;-73
2022/01/22 00:11:54;;;;;;;;;29.25;26.75;;;;;;;;5049892;28;45573;-73
2022/01/22 00:14:26;;;;;;;;;29.00;25.00;;;;;;;;5053283;28;45306;-73
2022/01/22 00:16:55;;;;;;;;;25.50;24.25;;;;;;;;5044310;28;45358;-73
2022/01/22 00:19:21;;;;;;;;;30.75;22.75;;;;;;;;5044128;28;45458;-73
2022/01/22 00:21:46;;;;;;;;;29.25;24.75;;;;;;;;5038300;28;48195;-73
2022/01/22 00:24:13;;;;;;;;;18.25;18.25;;;;;;;;5046958;28;45268;-73
2022/01/22 00:26:38;;;;;;;;;27.75;22.00;;;;;;;;5055298;28;45150;-73
2022/01/22 00:29:03;;;;;;;;;22.75;20.50;;;;;;;;5044456;28;45367;-73
2022/01/22 00:31:28;;;;;;;;;28.75;24.75;;;;;;;;5041374;28;47316;-74
2022/01/22 00:33:54;;;;;;;;;20.50;19.25;;;;;;;;5046618;28;45676;-73
2022/01/22 00:36:19;;;;;;;;;22.25;19.75;;;;;;;;5044493;28;45383;-74
2022/01/22 00:38:44;;;;;;;;;22.25;19.50;;;;;;;;5048844;28;45427;-74
2022/01/22 00:41:10;;;;;;;;;27.00;24.25;;;;;;;;5058257;28;47119;-73
2022/01/22 00:43:35;;;;;;;;;23.25;20.00;;;;;;;;5048840;28;45410;-73
2022/01/22 00:46:01;;;;;;;;;25.50;22.25;;;;;;;;5037550;28;45450;-74
2022/01/22 00:48:26;;;;;;;;;31.00;25.00;;;;;;;;5046397;28;45309;-73
2022/01/22 00:50:55;;;;;;;;;22.25;18.50;;;;;;;;5041685;28;47474;-73
2022/01/22 00:53:20;;;;;;;;;24.75;19.75;;;;;;;;5056101;28;45323;-74
2022/01/22 00:55:45;;;;;;;;;26.25;20.50;;;;;;;;5051038;28;45232;-73
2022/01/22 00:58:11;;;;;;;;;23.00;20.00;;;;;;;;5056071;28;45260;-73
2022/01/22 01:00:36;;;;;;;;;25.25;22.25;;;;;;;;5057842;28;47236;-73
2022/01/22 01:03:01;;;;;;;;;25.00;22.25;;;;;;;;5057272;28;45446;-74
2022/01/22 01:05:27;;;;;;;;;21.25;19.25;;;;;;;;5051228;28;45240;-74
2022/01/22 01:07:52;;;;;;;;;26.75;20.25;;;;;;;;5056515;28;45216;-74
2022/01/22 01:10:18;;;;;;;;;25.75;16.75;;;;;;;;5049034;28;47211;-74
2022/01/22 01:12:43;;;;;;;;;23.25;20.25;;;;;;;;5043949;28;45518;-73
2022/01/22 01:34:11;;;;;;;;;20.25;19.25;;;;;;;;5047473;28;45386;-73
2022/01/22 01:36:37;;;;;;;;;21.50;21.00;;;;;;;;5042530;28;45443;-74
2022/01/22 01:39:06;;;;;;;;;24.00;18.25;;;;;;;;5044058;28;45520;-73
2022/01/22 01:44:02;;;;;;;;;20.50;19.00;;;;;;;;5049177;28;45328;-73
2022/01/22 01:46:30;;;;;;;;;23.00;19.75;;;;;;;;5043929;28;45408;-74
2022/01/22 01:48:57;;;;;;;;;24.25;21.25;;;;;;;;5034540;28;47477;-74
2022/01/22 01:51:25;;;;;;;;;26.00;25.00;;;;;;;;5044557;28;46425;-74
2022/01/22 01:58:59;;;;;;;;;27.00;23.00;;;;;;;;5055057;28;45427;-74
2022/01/22 02:01:24;;;;;;;;;26.25;23.25;;;;;;;;5058545;28;45632;-75
2022/01/22 02:03:50;;;;;;;;;22.25;20.75;;;;;;;;5051271;28;45707;-74
2022/01/22 02:06:15;;;;;;;;;22.50;20.75;;;;;;;;5052256;28;45466;-73
2022/01/22 02:08:40;;;;;;;;;25.25;20.75;;;;;;;;5053930;28;45458;-74
2022/01/22 02:11:06;;;;;;;;;25.50;21.00;;;;;;;;5034443;28;48006;-74
2022/01/22 02:14:03;;;;;;;;;20.50;20.50;;;;;;;;5034164;28;45938;-74
2022/01/22 02:24:46;;;;;;;;;17.00;14.25;;;;;;;;5055938;28;45370;-75
2022/01/22 02:27:12;;;;;;;;;23.75;17.25;;;;;;;;5043804;28;45273;-75
2022/01/22 02:29:37;;;;;;;;;21.50;17.50;;;;;;;;5036570;28;46498;-75
2022/01/22 02:34:52;;;;;;;;;18.25;14.25;;;;;;;;5055145;28;45354;-75
2022/01/22 02:37:20;;;;;;;;;20.75;18.75;;;;;;;;5061732;28;45147;-75
2022/01/22 02:39:59;;;;;;;;;17.50;17.50;;;;;;;;5055662;28;45345;-75
2022/01/22 02:42:29;;;;;;;;;19.75;16.75;;;;;;;;5025574;28;47387;-75
2022/01/22 02:44:54;;;;;;;;;20.50;16.75;;;;;;;;5031859;28;45468;-75
2022/01/22 02:47:20;;;;;;;;;22.00;22.00;;;;;;;;5040386;28;45321;-75
2022/01/22 02:49:46;;;;;;;;;20.25;17.50;;;;;;;;5033483;28;45437;-75
2022/01/22 02:52:11;;;;;;;;;18.25;17.00;;;;;;;;5039084;28;47185;-75
2022/01/22 02:54:37;;;;;;;;;21.25;17.50;;;;;;;;5035067;28;45426;-75
2022/01/22 02:57:03;;;;;;;;;23.50;19.00;;;;;;;;5040152;28;45327;-75
2022/01/22 02:59:28;;;;;;;;;21.75;16.25;;;;;;;;5032233;28;47176;-74
2022/01/22 03:01:53;;;;;;;;;20.00;20.00;;;;;;;;5038340;28;47024;-75
2022/01/22 03:04:20;;;;;;;;;23.50;19.75;;;;;;;;5038434;28;45341;-75
2022/01/22 03:06:47;;;;;;;;;20.50;19.75;;;;;;;;5040587;28;45411;-75
2022/01/22 03:09:14;;;;;;;;;19.25;17.75;;;;;;;;5032080;28;45452;-75
2022/01/22 03:11:59;;;;;;;;;16.00;16.00;;;;;;;;5039911;28;47181;-75
2022/01/22 03:17:12;;;;;;;;;16.00;15.00;;;;;;;;5030673;28;44708;-75
2022/01/22 03:22:19;;;;;;;;;12.25;11.00;;;;;;;;5040860;28;45285;-75
2022/01/22 03:27:30;;;;;;;;;20.50;17.50;;;;;;;;5039884;28;45271;-75
2022/01/22 03:29:56;;;;;;;;;19.75;14.75;;;;;;;;5034627;28;45295;-75
2022/01/22 03:32:23;;;;;;;;;17.25;13.50;;;;;;;;5040169;28;45253;-75
2022/01/22 03:35:07;;;;;;;;;18.75;17.50;;;;;;;;5051911;28;45346;-75
2022/01/22 03:37:32;;;;;;;;;22.50;20.25;;;;;;;;5039014;28;45342;-74
2022/01/22 03:39:58;;;;;;;;;20.25;17.75;;;;;;;;5035960;28;45359;-74
2022/01/22 03:42:23;;;;;;;;;18.25;16.25;;;;;;;;5053239;28;47286;-75
2022/01/22 03:44:48;;;;;;;;;23.00;21.25;;;;;;;;5034159;28;45244;-75
2022/01/22 03:47:13;;;;;;;;;25.75;17.00;;;;;;;;5036089;28;45233;-75
2022/01/22 03:49:39;;;;;;;;;20.50;16.75;;;;;;;;5036561;28;45426;-75
2022/01/22 03:52:04;;;;;;;;;20.25;17.00;;;;;;;;5037859;28;47005;-75
2022/01/22 03:54:29;;;;;;;;;20.25;16.25;;;;;;;;5036462;28;45247;-75
2022/01/22 03:56:55;;;;;;;;;23.75;18.50;;;;;;;;5039325;28;45379;-75
2022/01/22 03:59:20;;;;;;;;;18.00;17.50;;;;;;;;5037554;28;45674;-75
2022/01/22 04:02:17;;;;;;;;;20.75;19.75;;;;;;;;5039859;28;47400;-75
2022/01/22 04:04:43;;;;;;;;;18.00;15.50;;;;;;;;5030272;28;45440;-75
2022/01/22 04:09:52;;;;;;;;;17.75;14.75;;;;;;;;5031499;28;45787;-75
2022/01/22 04:12:24;;;;;;;;;14.25;11.50;;;;;;;;5046907;28;47842;-75
2022/01/22 04:14:57;;;;;;;;;19.00;16.75;;;;;;;;5034170;28;45407;-75
2022/01/22 04:17:38;;;;;;;;;21.25;15.00;;;;;;;;5038483;28;45475;-75
2022/01/22 04:25:35;;;;;;;;;17.75;17.00;;;;;;;;5037426;28;45316;-75
2022/01/22 04:28:01;;;;;;;;;20.50;17.50;;;;;;;;5033052;28;45406;-75
2022/01/22 04:30:28;;;;;;;;;17.00;14.75;;;;;;;;5035770;28;45300;-75
2022/01/22 04:32:53;;;;;;;;;19.25;19.00;;;;;;;;5036609;28;45368;-75
2022/01/22 04:35:19;;;;;;;;;18.25;18.25;;;;;;;;5035683;28;45430;-75
2022/01/22 04:37:45;;;;;;;;;22.25;16.50;;;;;;;;5037675;28;45242;-75
2022/01/22 04:40:10;;;;;;;;;16.75;15.50;;;;;;;;5034861;28;45553;-75
2022/01/22 04:42:38;;;;;;;;;17.50;15.75;;;;;;;;5052068;28;47221;-75
2022/01/22 04:45:13;;;;;;;;;17.25;14.50;;;;;;;;5037389;28;45252;-75
2022/01/22 04:48:27;;;;;;;;;17.25;16.25;;;;;;;;5036554;28;45256;-75
2022/01/22 04:55:41;;;;;;;;;15.75;14.25;;;;;;;;5037128;28;45457;-75
2022/01/22 04:58:06;;;;;;;;;17.00;17.00;;;;;;;;5036226;28;45367;-75
2022/01/22 05:00:33;;;;;;;;;13.75;12.00;;;;;;;;5038324;28;45475;-75
2022/01/22 05:02:59;;;;;;;;;25.25;16.75;;;;;;;;5037185;28;46598;-75
2022/01/22 05:05:24;;;;;;;;;20.75;16.00;;;;;;;;5030167;28;45294;-75
2022/01/22 05:07:49;;;;;;;;;19.75;17.50;;;;;;;;5037329;28;45256;-75
2022/01/22 05:10:15;;;;;;;;;22.00;19.00;;;;;;;;5026830;28;46108;-75
2022/01/22 05:12:40;;;;;;;;;20.50;15.50;;;;;;;;5032747;28;46361;-75
2022/01/22 05:15:06;;;;;;;;;19.50;19.50;;;;;;;;5034639;28;45319;-75
2022/01/22 05:17:35;;;;;;;;;18.00;17.50;;;;;;;;5038005;28;45280;-75
2022/01/22 05:20:09;;;;;;;;;25.25;21.00;;;;;;;;5027074;28;46175;-75
2022/01/22 05:25:04;;;;;;;;;20.50;15.50;;;;;;;;5034004;28;45422;-75
2022/01/22 05:30:06;;;;;;;;;19.00;17.75;;;;;;;;5033303;28;45826;-74
2022/01/22 05:32:39;;;;;;;;;20.00;15.50;;;;;;;;5037683;28;45324;-75
2022/01/22 05:37:48;;;;;;;;;18.75;16.50;;;;;;;;5036336;28;45536;-75
2022/01/22 05:40:14;;;;;;;;;24.75;18.00;;;;;;;;5034228;28;45384;-75
2022/01/22 05:42:39;;;;;;;;;21.50;17.25;;;;;;;;5053895;28;45540;-74
2022/01/22 05:45:05;;;;;;;;;21.75;19.25;;;;;;;;5051348;28;45519;-74
2022/01/22 05:47:30;;;;;;;;;17.25;17.00;;;;;;;;5039881;28;45454;-75
2022/01/22 05:49:56;;;;;;;;;26.50;18.50;;;;;;;;5053702;28;45419;-74
2022/01/22 05:52:32;;;;;;;;;21.00;18.50;;;;;;;;5059679;28;45612;-75
2022/01/22 06:00:25;;;;;;;;;22.75;18.25;;;;;;;;5049709;28;45316;-74
2022/01/22 06:02:51;;;;;;;;;26.25;22.25;;;;;;;;5060073;28;45642;-75
2022/01/22 06:05:18;;;;;;;;;31.00;23.50;;;;;;;;5054390;28;45417;-75
2022/01/22 06:07:43;;;;;;;;;25.75;23.25;;;;;;;;5060368;28;45423;-75
2022/01/22 06:10:18;;;;;;;;;28.00;23.25;;;;;;;;5057541;28;45548;-75
2022/01/22 06:15:15;;;;;;;;;27.00;22.00;;;;;;;;5055626;28;45175;-75
2022/01/22 06:17:40;;;;;;;;;27.00;23.00;;;;;;;;5060693;28;45260;-75
2022/01/22 06:20:06;;;;;;;;;11.50;7.25;;;;;;;;5059121;28;45404;-74
2022/01/22 06:22:31;;;;;;;;;33.25;25.75;;;;;;;;5060922;28;45704;-75
2022/01/22 06:24:56;;;;;;;;;31.50;25.25;;;;;;;;5054818;28;45297;-75
2022/01/22 06:27:22;;;;;;;;;31.25;27.50;;;;;;;;5062097;28;45197;-75
2022/01/22 06:29:47;;;;;;;;;26.25;19.50;;;;;;;;5053350;28;46215;-75
2022/01/22 06:32:12;;;;;;;;;30.75;27.00;;;;;;;;5062011;28;45533;-75
2022/01/22 06:34:37;;;;;;;;;33.00;27.00;;;;;;;;5053991;28;45517;-75
2022/01/22 06:37:03;;;;;;;;;27.00;21.75;;;;;;;;5048975;28;45189;-75
2022/01/22 06:39:29;;;;;;;;;31.00;29.00;;;;;;;;5054966;28;46996;-75
2022/01/22 06:41:54;;;;;;;;;28.50;23.25;;;;;;;;5061457;28;45496;-75
2022/01/22 06:44:21;;;;;;;;;25.25;23.00;;;;;;;;5054939;28;45288;-75
2022/01/22 06:46:48;;;;;;;;;29.25;28.00;;;;;;;;5044911;28;45217;-75
2022/01/22 06:49:13;;;;;;;;;27.75;24.25;;;;;;;;5052373;28;46517;-75
2022/01/22 06:51:38;;;;;;;;;73.00;57.00;;;;;;;;5056001;28;45387;-75
2022/01/22 06:54:04;;;;;;;;;50.50;40.50;;;;;;;;5057712;28;45399;-75
2022/01/22 06:56:30;;;;;;;;;62.50;50.50;;;;;;;;5047032;28;45379;-75
2022/01/22 06:58:57;;;;;;;;;65.00;48.25;;;;;;;;5058493;28;45399;-75
2022/01/22 07:01:22;;;;;;;;;61.25;48.00;;;;;;;;5060125;28;46321;-75
2022/01/22 07:03:47;;;;;;;;;30.00;29.75;;;;;;;;5055835;28;45419;-75
2022/01/22 07:06:12;;;;;;;;;58.00;40.25;;;;;;;;5055274;28;45306;-75
2022/01/22 07:08:38;;;;;;;;;44.25;36.25;;;;;;;;5054301;28;46443;-75
2022/01/22 07:11:03;;;;;;;;;52.00;40.00;;;;;;;;5035603;28;48267;-75
2022/01/22 07:13:28;;;;;;;;;60.75;47.75;;;;;;;;5057418;28;45370;-75
2022/01/22 07:15:53;;;;;;;;;47.00;39.25;;;;;;;;5056226;28;45461;-74
2022/01/22 07:18:18;;;;;;;;;32.75;32.00;;;;;;;;5055842;28;45680;-73
2022/01/22 07:20:44;;;;;;;;;39.25;34.50;;;;;;;;5059655;28;46520;-73
2022/01/22 07:25:58;;;;;;;;;30.00;26.75;;;;;;;;5025985;28;44826;-73
2022/01/22 07:28:23;;;;;;;;;37.75;31.50;;;;;;;;5054494;28;45212;-73
2022/01/22 07:30:49;;;;;;;;;35.00;30.50;;;;;;;;5058538;28;45580;-73
2022/01/22 07:33:14;;;;;;;;;48.00;37.00;;;;;;;;5056219;28;45676;-73
2022/01/22 07:35:39;;;;;;;;;42.75;35.75;;;;;;;;5058887;28;45493;-73
2022/01/22 07:38:05;;;;;;;;;30.00;26.25;;;;;;;;5057195;28;45204;-73
2022/01/22 07:40:30;;;;;;;;;36.00;32.00;;;;;;;;5035823;28;47979;-73
2022/01/22 07:42:55;;;;;;;;;35.00;30.25;;;;;;;;5058162;28;45486;-73
2022/01/22 07:45:20;;;;;;;;;37.00;28.25;;;;;;;;5042395;28;45453;-73
2022/01/22 07:47:46;;;;;;;;;42.00;33.75;;;;;;;;5040482;28;46065;-73
2022/01/22 07:50:11;;;;;;;;;40.75;28.00;;;;;;;;5048013;28;45546;-73
2022/01/22 07:52:36;;;;;;;;;42.00;36.50;;;;;;;;5058632;28;45486;-73
2022/01/22 07:55:03;;;;;;;;;45.75;37.00;;;;;;;;5058290;28;45236;-73
2022/01/22 07:57:28;;;;;;;;;45.75;36.50;;;;;;;;5059105;28;45480;-73
2022/01/22 07:59:53;;;;;;;;;39.50;37.00;;;;;;;;5049991;28;45430;-73
2022/01/22 08:02:19;;;;;;;;;44.75;37.25;;;;;;;;5060576;28;45445;-73
2022/01/22 08:04:44;;;;;;;;;41.00;36.25;;;;;;;;5032068;28;45456;-74
2022/01/22 08:07:10;;;;;;;;;55.75;44.50;;;;;;;;5043535;28;46206;-73
2022/01/22 08:09:35;;;;;;;;;39.75;32.00;;;;;;;;5035153;28;47197;-74
2022/01/22 08:12:01;;;;;;;;;32.50;30.25;;;;;;;;5042055;28;45371;-74
2022/01/22 08:14:26;;;;;;;;;31.00;31.00;;;;;;;;5031099;28;45366;-74
2022/01/22 08:16:52;;;;;;;;;31.50;28.25;;;;;;;;5058589;28;47154;-74
2022/01/22 08:19:17;;;;;;;;;30.50;23.75;;;;;;;;5053151;28;45321;-74
2022/01/22 08:21:44;;;;;;;;;36.25;26.00;;;;;;;;5059897;28;45298;-74
2022/01/22 08:24:10;;;;;;;;;36.00;31.50;;;;;;;;5053023;28;45300;-73
2022/01/22 08:26:40;;;;;;;;;37.00;31.00;;;;;;;;5041574;28;45960;-74
2022/01/22 08:29:05;;;;;;;;;34.75;32.75;;;;;;;;5052709;28;45670;-74
2022/01/22 08:36:40;;;;;;;;;36.00;33.50;;;;;;;;5058685;28;45226;-74
2022/01/22 08:39:06;;;;;;;;;44.75;35.25;;;;;;;;5056508;28;45181;-74
2022/01/22 08:41:32;;;;;;;;;36.75;33.50;;;;;;;;5058777;28;45458;-72
2022/01/22 08:43:59;;;;;;;;;38.25;33.50;;;;;;;;5036767;28;45309;-73
2022/01/22 08:46:26;;;;;;;;;42.50;33.25;;;;;;;;5058445;28;45785;-73
2022/01/22 08:48:51;;;;;;;;;43.75;32.00;;;;;;;;5038099;28;48321;-73
2022/01/22 08:51:16;;;;;;;;;40.75;32.50;;;;;;;;5058815;28;44810;-73
2022/01/22 08:53:41;;;;;;;;;47.00;35.25;;;;;;;;5056656;28;45473;-72
2022/01/22 08:56:09;;;;;;;;;43.75;38.25;;;;;;;;5058183;28;45305;-72
2022/01/22 08:58:34;;;;;;;;;40.75;33.75;;;;;;;;5037713;28;47139;-72
2022/01/22 09:00:59;;;;;;;;;40.25;36.50;;;;;;;;5057013;28;45319;-73
2022/01/22 09:03:25;;;;;;;;;46.00;37.00;;;;;;;;5038274;28;45390;-72
2022/01/22 09:05:50;;;;;;;;;42.25;34.25;;;;;;;;5058443;28;45432;-73
2022/01/22 09:08:16;;;;;;;;;43.00;37.25;;;;;;;;5057013;28;46310;-72
2022/01/22 09:10:44;;;;;;;;;37.75;34.25;;;;;;;;5040290;28;45319;-73
2022/01/22 09:13:10;;;;;;;;;58.00;46.50;;;;;;;;5057167;28;45435;-73
2022/01/22 09:15:36;;;;;;;;;59.50;48.00;;;;;;;;5058273;28;45526;-73
2022/01/22 09:18:01;;;;;;;;;47.50;39.25;;;;;;;;5056213;28;46245;-74
2022/01/22 09:23:04;;;;;;;;;60.75;49.50;;;;;;;;5056342;28;45320;-74
2022/01/22 09:25:29;;;;;;;;;43.00;37.00;;;;;;;;5058204;28;45443;-74
2022/01/22 09:27:55;;;;;;;;;50.50;37.25;;;;;;;;5038807;28;46337;-72
2022/01/22 09:30:20;;;;;;;;;49.75;40.25;;;;;;;;5061765;28;45372;-73
2022/01/22 09:32:45;;;;;;;;;30.75;26.50;;;;;;;;5060025;28;45282;-74
2022/01/22 09:35:11;;;;;;;;;32.50;30.50;;;;;;;;5061646;28;45488;-74
2022/01/22 09:37:36;;;;;;;;;36.75;29.00;;;;;;;;5060199;28;45308;-74
2022/01/22 09:40:01;;;;;;;;;33.25;27.50;;;;;;;;5060662;28;45479;-72
2022/01/22 09:42:27;;;;;;;;;36.25;32.25;;;;;;;;5045888;28;45389;-73
2022/01/22 09:44:52;;;;;;;;;46.00;36.25;;;;;;;;5054681;28;45360;-72
2022/01/22 09:47:19;;;;;;;;;33.50;29.75;;;;;;;;5060935;28;46427;-73
2022/01/22 09:49:44;;;;;;;;;46.50;37.00;;;;;;;;5057399;28;45324;-72
2022/01/22 09:52:10;;;;;;;;;39.75;37.00;;;;;;;;5062111;28;45547;-72
2022/01/22 09:54:35;;;;;;;;;42.25;36.75;;;;;;;;5054611;28;46287;-72
2022/01/22 09:57:03;;;;;;;;;35.25;34.25;;;;;;;;5061187;28;45423;-73
2022/01/22 09:59:29;;;;;;;;;38.50;36.00;;;;;;;;5051265;28;45497;-73
2022/01/22 10:02:06;;;;;;;;;33.50;30.25;;;;;;;;5043550;28;45293;-72
2022/01/22 10:04:36;;;;;;;;;35.00;29.50;;;;;;;;5038605;28;46051;-72
2022/01/22 10:07:01;;;;;;;;;33.50;27.25;;;;;;;;5050308;28;46606;-72
2022/01/22 10:09:33;;;;;;;;;33.00;28.75;;;;;;;;5036180;28;45931;-72
2022/01/22 10:12:08;;;;;;;;;23.50;23.50;;;;;;;;5061821;28;45290;-73
2022/01/22 10:14:33;;;;;;;;;34.00;29.00;;;;;;;;5036813;28;46957;-73
2022/01/22 10:16:58;;;;;;;;;42.75;35.25;;;;;;;;5051956;28;45687;-72
2022/01/22 10:19:24;;;;;;;;;29.75;27.25;;;;;;;;5052581;28;45679;-72
2022/01/22 10:21:57;;;;;;;;;32.75;30.00;;;;;;;;5061372;28;45440;-73
2022/01/22 10:24:29;;;;;;;;;48.25;39.75;;;;;;;;5054936;28;45221;-72
2022/01/22 10:27:20;;;;;;;;;33.50;25.00;;;;;;;;5061522;28;45582;-73
2022/01/22 10:29:47;;;;;;;;;54.75;42.50;;;;;;;;5054678;28;45413;-73
2022/01/22 10:32:16;;;;;;;;;45.50;39.50;;;;;;;;5048166;28;45324;-72
2022/01/22 10:34:42;;;;;;;;;35.75;34.25;;;;;;;;5054693;28;45381;-73
2022/01/22 10:37:07;;;;;;;;;45.00;39.25;;;;;;;;5061295;28;46352;-73
2022/01/22 10:39:33;;;;;;;;;58.50;43.00;;;;;;;;5054270;28;45215;-73
2022/01/22 10:41:58;;;;;;;;;53.75;44.25;;;;;;;;5057446;28;45253;-73
2022/01/22 10:44:37;;;;;;;;;48.50;37.75;;;;;;;;5056150;28;45264;-73
2022/01/22 10:47:03;;;;;;;;;27.75;24.75;;;;;;;;5040705;28;47143;-73
2022/01/22 10:49:30;;;;;;;;;58.25;48.00;;;;;;;;5056476;28;45474;-73
2022/01/22 10:51:59;;;;;;;;;57.00;47.25;;;;;;;;5059188;28;45629;-73
2022/01/22 10:54:29;;;;;;;;;46.50;37.25;;;;;;;;5052855;28;45496;-73
2022/01/22 10:57:08;;;;;;;;;33.00;29.00;;;;;;;;5059835;28;45649;-73
2022/01/22 10:59:34;;;;;;;;;33.75;28.50;;;;;;;;5049769;28;45240;-73
2022/01/22 11:02:00;;;;;;;;;45.75;37.75;;;;;;;;5061015;28;45322;-72
2022/01/22 11:04:25;;;;;;;;;35.00;29.00;;;;;;;;5033174;28;45860;-72
2022/01/22 11:06:54;;;;;;;;;30.75;29.25;;;;;;;;5060506;28;46366;-73
2022/01/22 11:09:20;;;;;;;;;30.00;25.75;;;;;;;;5054587;28;45442;-72
2022/01/22 11:11:46;;;;;;;;;35.50;32.25;;;;;;;;5059555;28;45361;-73
2022/01/22 11:14:13;;;;;;;;;59.50;46.00;;;;;;;;5054145;28;45263;-72
2022/01/22 11:16:40;;;;;;;;;56.75;47.50;;;;;;;;5060370;28;46627;-73
2022/01/22 11:19:06;;;;;;;;;56.50;42.75;;;;;;;;5052934;28;45318;-73
2022/01/22 11:21:32;;;;;;;;;41.00;35.25;;;;;;;;5059495;28;44851;-72
2022/01/22 11:23:57;;;;;;;;;34.25;31.00;;;;;;;;5054101;28;45330;-73
2022/01/22 11:26:23;;;;;;;;;26.75;24.75;;;;;;;;5058764;28;45711;-73
2022/01/22 11:28:51;;;;;;;;;27.25;22.75;;;;;;;;5033253;28;45528;-73
2022/01/22 11:31:17;;;;;;;;;24.50;22.00;;;;;;;;5055039;28;45456;-73
2022/01/22 11:33:44;;;;;;;;;28.00;24.00;;;;;;;;5036807;28;45943;-73
2022/01/22 11:36:13;;;;;;;;;34.00;23.50;;;;;;;;5060905;28;45345;-73
2022/01/22 11:38:40;;;;;;;;;25.00;19.75;;;;;;;;5036756;28;45455;-73
2022/01/22 11:41:09;;;;;;;;;27.75;26.00;;;;;;;;5056806;28;45274;-73
2022/01/22 11:46:35;;;;;;;;;26.50;24.75;;;;;;;;5056505;28;45518;-73
2022/01/22 11:49:11;;;;;;;;;29.25;24.75;;;;;;;;5054338;28;45563;-71
2022/01/22 11:51:37;;;;;;;;;34.50;27.00;;;;;;;;5052901;28;45890;-71
2022/01/22 11:54:03;;;;;;;;;25.75;21.50;;;;;;;;5052262;28;45207;-72
2022/01/22 11:56:29;;;;;;;;;31.25;27.50;;;;;;;;5046602;28;47110;-72
2022/01/22 11:59:01;;;;;;;;;20.75;20.25;;;;;;;;5054875;28;45292;-72
2022/01/22 12:01:52;;;;;;;;;25.75;23.50;;;;;;;;5056520;28;45371;-72
2022/01/22 12:04:18;;;;;;;;;25.50;23.75;;;;;;;;5032081;28;46199;-72
2022/01/22 12:07:02;;;;;;;;;25.50;21.00;;;;;;;;5059477;28;46308;-72
2022/01/22 12:15:20;;;;;;;;;26.00;23.25;;;;;;;;5053615;28;45241;-72
2022/01/22 12:17:59;;;;;;;;;26.75;26.25;;;;;;;;5057707;28;45323;-72
2022/01/22 12:23:05;;;;;;;;;28.25;22.25;;;;;;;;5043433;28;45411;-72
2022/01/22 12:25:30;;;;;;;;;29.50;29.25;;;;;;;;5056615;28;45438;-72
2022/01/22 12:27:56;;;;;;;;;37.50;31.50;;;;;;;;5038891;28;47328;-72
2022/01/22 12:30:36;;;;;;;;;38.00;33.25;;;;;;;;5043386;28;45253;-72
2022/01/22 12:33:02;;;;;;;;;44.50;39.00;;;;;;;;5036234;28;45485;-72
2022/01/22 12:35:48;;;;;;;;;31.50;29.00;;;;;;;;5034202;28;46270;-72
2022/01/22 12:38:13;;;;;;;;;62.00;43.25;;;;;;;;5053431;28;45596;-72
2022/01/22 12:40:38;;;;;;;;;35.25;29.75;;;;;;;;5054724;28;45437;-72
2022/01/22 12:43:09;;;;;;;;;35.50;32.50;;;;;;;;5055153;28;45364;-72
2022/01/22 12:45:36;;;;;;;;;45.75;38.75;;;;;;;;5054299;28;45553;-72
2022/01/22 12:48:02;;;;;;;;;31.00;24.25;;;;;;;;5055881;28;47235;-72
2022/01/22 12:50:30;;;;;;;;;36.00;31.00;;;;;;;;5054132;28;45347;-72
2022/01/22 12:53:01;;;;;;;;;37.25;24.25;;;;;;;;5056137;28;45320;-73
2022/01/22 12:55:48;;;;;;;;;30.50;27.00;;;;;;;;5057230;28;45385;-73
2022/01/22 12:58:19;;;;;;;;;35.25;31.00;;;;;;;;5056495;28;45661;-72
2022/01/22 13:00:44;;;;;;;;;34.50;31.75;;;;;;;;5050531;28;45317;-73
2022/01/22 13:03:09;;;;;;;;;29.00;26.75;;;;;;;;5038756;28;45371;-72
2022/01/22 13:05:34;;;;;;;;;40.25;30.25;;;;;;;;5048665;28;47110;-72
2022/01/22 13:08:02;;;;;;;;;29.75;27.50;;;;;;;;5039890;28;47032;-72
2022/01/22 13:10:33;;;;;;;;;32.25;26.75;;;;;;;;5054872;28;45333;-73
2022/01/22 13:12:59;;;;;;;;;34.50;25.75;;;;;;;;5052716;28;45237;-73
2022/01/22 13:15:27;;;;;;;;;32.25;29.25;;;;;;;;5058029;28;46365;-73
2022/01/22 13:17:56;;;;;;;;;35.00;31.25;;;;;;;;5056158;28;45475;-73
2022/01/22 13:20:22;;;;;;;;;39.50;30.00;;;;;;;;5054388;28;45450;-73
2022/01/22 13:22:48;;;;;;;;;42.25;33.00;;;;;;;;5041023;28;45371;-73
2022/01/22 13:25:14;;;;;;;;;42.00;35.25;;;;;;;;5040575;28;47019;-73
2022/01/22 13:27:40;;;;;;;;;33.50;30.25;;;;;;;;5025675;28;47092;-73
2022/01/22 13:30:07;;;;;;;;;31.75;28.50;;;;;;;;5064071;28;45261;-74
2022/01/22 13:32:54;;;;;;;;;32.50;28.00;;;;;;;;5051991;28;45493;-73
2022/01/22 13:38:15;;;;;;;;;57.00;43.25;;;;;;;;5056433;28;45303;-73
2022/01/22 13:49:13;;;;;;;;;30.25;27.75;;;;;;;;5055257;28;45373;-72
2022/01/22 13:51:39;;;;;;;;;36.00;34.25;;;;;;;;5057749;28;45295;-72
2022/01/22 13:54:05;;;;;;;;;29.25;27.75;;;;;;;;5052353;28;45441;-72
2022/01/22 13:56:49;;;;;;;;;33.00;28.25;;;;;;;;5051773;28;45487;-71
2022/01/22 13:59:25;;;;;;;;;53.25;43.00;;;;;;;;5052273;28;46149;-73
2022/01/22 14:02:08;;;;;;;;;37.75;33.00;;;;;;;;5057328;28;45400;-72
2022/01/22 14:04:43;;;;;;;;;35.50;32.25;;;;;;;;5038447;28;45403;-72
2022/01/22 14:07:19;;;;;;;;;27.25;22.25;;;;;;;;5055690;28;44823;-72
2022/01/22 14:09:56;;;;;;;;;33.00;29.50;;;;;;;;5056708;28;45766;-72
2022/01/22 14:12:23;;;;;;;;;38.75;34.25;;;;;;;;5058039;28;45292;-71
2022/01/22 14:15:02;;;;;;;;;30.50;27.00;;;;;;;;5057254;28;45182;-71
2022/01/22 14:17:36;;;;;;;;;37.75;33.25;;;;;;;;5061027;28;45406;-71
2022/01/22 14:20:05;;;;;;;;;44.50;34.25;;;;;;;;5038518;28;47456;-70
2022/01/22 14:22:50;;;;;;;;;33.25;29.00;;;;;;;;5061375;28;45481;-72
2022/01/22 14:25:15;;;;;;;;;37.50;34.75;;;;;;;;5054867;28;45537;-72
2022/01/22 14:27:41;;;;;;;;;37.75;31.50;;;;;;;;5043625;28;47362;-71
2022/01/22 14:30:06;;;;;;;;;47.25;38.00;;;;;;;;5035662;28;47226;-71
2022/01/22 14:32:31;;;;;;;;;46.50;37.50;;;;;;;;5059226;28;45402;-72
2022/01/22 14:34:59;;;;;;;;;33.50;31.00;;;;;;;;5033591;28;45262;-72
2022/01/22 14:37:27;;;;;;;;;43.50;34.00;;;;;;;;5055749;28;45556;-72
2022/01/22 14:45:27;;;;;;;;;37.00;34.75;;;;;;;;5058771;28;45247;-71
2022/01/22 14:47:54;;;;;;;;;54.25;43.50;;;;;;;;5058850;28;45421;-72
2022/01/22 14:50:19;;;;;;;;;42.25;35.00;;;;;;;;5060150;28;45607;-72
2022/01/22 14:52:47;;;;;;;;;36.50;35.00;;;;;;;;5041780;28;45232;-72
2022/01/22 14:55:13;;;;;;;;;39.00;34.00;;;;;;;;5054859;28;45503;-72
2022/01/22 14:57:39;;;;;;;;;40.50;34.00;;;;;;;;5058531;28;45629;-71
2022/01/22 15:00:07;;;;;;;;;37.25;34.00;;;;;;;;5058773;28;45588;-72
2022/01/22 15:02:33;;;;;;;;;37.75;33.75;;;;;;;;5048224;28;45222;-73
2022/01/22 15:04:58;;;;;;;;;46.25;38.00;;;;;;;;5059375;28;45205;-73
2022/01/22 15:07:23;;;;;;;;;44.75;37.50;;;;;;;;5042000;28;47095;-73
2022/01/22 15:09:49;;;;;;;;;42.50;35.00;;;;;;;;5057454;28;46369;-73
2022/01/22 15:12:16;;;;;;;;;45.75;37.50;;;;;;;;5059852;28;45237;-73
2022/01/22 15:14:42;;;;;;;;;49.00;35.25;;;;;;;;5039586;28;45442;-73
2022/01/22 15:19:37;;;;;;;;;48.00;35.75;;;;;;;;5057611;28;45340;-73
2022/01/22 15:22:03;;;;;;;;;42.25;36.50;;;;;;;;5059956;28;45245;-73
2022/01/22 15:24:28;;;;;;;;;51.25;39.00;;;;;;;;5039517;28;45486;-73
2022/01/22 15:26:54;;;;;;;;;45.75;36.25;;;;;;;;5059248;28;45546;-74
2022/01/22 15:29:25;;;;;;;;;45.75;38.00;;;;;;;;5057332;28;45569;-73
2022/01/22 15:32:03;;;;;;;;;43.50;38.00;;;;;;;;5039963;28;45497;-73
2022/01/22 15:36:55;;;;;;;;;39.25;36.00;;;;;;;;5059637;28;45356;-73
2022/01/22 15:39:20;;;;;;;;;44.50;36.00;;;;;;;;5057517;28;45398;-73
2022/01/22 15:41:45;;;;;;;;;47.00;36.00;;;;;;;;5059697;28;45329;-73
2022/01/22 15:44:11;;;;;;;;;40.00;32.75;;;;;;;;5057507;28;46656;-74
2022/01/22 15:46:38;;;;;;;;;52.00;42.75;;;;;;;;5040575;28;47012;-72
2022/01/22 15:49:04;;;;;;;;;33.25;28.00;;;;;;;;5055130;28;46548;-73
2022/01/22 15:51:29;;;;;;;;;49.00;40.00;;;;;;;;5059503;28;45481;-73
2022/01/22 15:53:54;;;;;;;;;45.00;37.50;;;;;;;;5039330;28;45490;-73
2022/01/22 15:56:19;;;;;;;;;38.50;36.00;;;;;;;;5059374;28;45696;-72
2022/01/22 15:58:44;;;;;;;;;47.50;37.50;;;;;;;;5055534;28;47198;-73
2022/01/22 16:01:11;;;;;;;;;47.50;36.25;;;;;;;;5040841;28;45424;-73
2022/01/22 16:03:42;;;;;;;;;41.25;35.75;;;;;;;;5058078;28;45344;-73
2022/01/22 16:06:18;;;;;;;;;46.00;37.50;;;;;;;;5057083;28;45446;-73
2022/01/22 16:08:43;;;;;;;;;45.75;36.50;;;;;;;;5053649;28;47650;-73
2022/01/22 16:11:08;;;;;;;;;43.50;39.50;;;;;;;;5040909;28;45446;-73
2022/01/22 16:13:34;;;;;;;;;41.50;38.00;;;;;;;;5037977;28;45493;-73
2022/01/22 16:16:01;;;;;;;;;39.50;36.00;;;;;;;;5040923;28;47056;-73
2022/01/22 16:18:26;;;;;;;;;47.00;38.00;;;;;;;;5056099;28;45835;-73